Time;durP1;ratioP1;P1;durP2;ratioP2;P2;SDS_P1;SDS_P2;PMS_P1;PMS_P2;Temp;Humidity;BMP_temperature;BMP_pressure;BME280_temperature;BME280_humidity;BME280_pressure;Samples;Min_cycle;Max_cycle;Signal;HPM_P1;HPM_P2
2021/12/04 00:01:09;;;;;;;2.63;1.93;;;4.80;99.90;;;;;;5064890;28;20468;-84
2021/12/04 00:03:36;;;;;;;3.23;2.63;;;4.90;99.90;;;;;;5067273;28;20465;-84
2021/12/04 00:06:08;;;;;;;2.80;2.00;;;4.90;99.90;;;;;;5058156;28;20449;-84
2021/12/04 00:08:35;;;;;;;2.60;2.20;;;4.90;99.90;;;;;;5056888;28;20453;-82
2021/12/04 00:11:04;;;;;;;2.60;2.07;;;4.90;99.90;;;;;;5063207;28;20468;-84
2021/12/04 00:13:33;;;;;;;3.93;2.10;;;4.90;99.90;;;;;;5060968;28;20455;-82
2021/12/04 00:16:00;;;;;;;5.43;1.80;;;4.90;99.90;;;;;;5065147;28;20479;-83
2021/12/04 00:18:27;;;;;;;2.83;1.83;;;4.90;99.90;;;;;;5055502;28;20448;-81
2021/12/04 00:20:53;;;;;;;3.63;2.47;;;4.90;99.90;;;;;;5054827;28;20805;-82
2021/12/04 00:23:20;;;;;;;3.23;1.97;;;4.90;99.90;;;;;;5064283;28;20486;-82
2021/12/04 00:25:47;;;;;;;3.10;1.87;;;5.00;99.90;;;;;;5048899;28;20756;-83
2021/12/04 00:28:15;;;;;;;2.93;1.90;;;5.00;99.90;;;;;;5057690;28;20444;-83
2021/12/04 00:30:43;;;;;;;2.70;1.57;;;5.00;99.90;;;;;;5062142;28;20539;-83
2021/12/04 00:33:15;;;;;;;2.53;1.73;;;5.00;99.90;;;;;;5059383;28;20953;-84
2021/12/04 00:35:46;;;;;;;2.40;1.80;;;5.00;99.90;;;;;;5052342;28;20460;-83
2021/12/04 00:49:12;;;;;;;4.43;1.70;;;5.00;99.90;;;;;;5061531;28;20448;-83
2021/12/04 00:51:41;;;;;;;2.90;1.93;;;5.10;99.90;;;;;;5061945;28;20533;-83
2021/12/04 00:54:10;;;;;;;4.73;1.90;;;5.00;99.90;;;;;;5064913;28;20509;-83
2021/12/04 00:56:38;;;;;;;3.70;1.90;;;5.10;99.90;;;;;;5065218;28;20552;-83
2021/12/04 00:59:06;;;;;;;3.10;2.63;;;5.10;99.90;;;;;;5056379;28;20448;-83
2021/12/04 01:01:33;;;;;;;2.67;2.00;;;5.10;99.90;;;;;;5066202;28;20446;-82
2021/12/04 01:04:00;;;;;;;4.53;2.20;;;5.10;99.90;;;;;;5068639;28;20480;-82
2021/12/04 01:06:26;;;;;;;3.50;2.23;;;5.10;99.90;;;;;;5064629;28;21233;-83
2021/12/04 01:08:53;;;;;;;3.60;2.50;;;5.10;99.90;;;;;;5059296;28;20545;-83
2021/12/04 01:11:20;;;;;;;2.80;2.37;;;4.90;99.90;;;;;;5065622;28;20533;-83
2021/12/04 01:13:47;;;;;;;3.30;2.23;;;5.00;99.90;;;;;;5063464;28;20521;-83
2021/12/04 01:16:15;;;;;;;3.53;2.77;;;4.90;99.90;;;;;;5060538;28;20464;-83
2021/12/04 01:18:43;;;;;;;3.70;2.37;;;4.90;99.90;;;;;;5064838;28;20460;-83
2021/12/04 01:21:10;;;;;;;4.13;2.60;;;4.90;99.90;;;;;;5062600;28;20515;-83
2021/12/04 01:23:37;;;;;;;3.33;2.80;;;4.90;99.90;;;;;;5067127;28;20513;-83
2021/12/04 01:26:04;;;;;;;3.37;2.80;;;4.90;99.90;;;;;;5050798;28;20464;-83
2021/12/04 01:28:31;;;;;;;5.70;3.03;;;4.80;99.90;;;;;;5048638;28;20454;-83
2021/12/04 01:30:58;;;;;;;3.60;3.10;;;4.80;99.90;;;;;;5053548;28;20479;-83
2021/12/04 01:33:26;;;;;;;3.90;2.90;;;4.90;99.90;;;;;;5057970;28;20457;-84
2021/12/04 01:35:53;;;;;;;4.33;3.37;;;5.00;99.90;;;;;;5061245;28;20446;-84
2021/12/04 01:38:20;;;;;;;4.33;3.13;;;5.00;99.90;;;;;;5061085;28;20453;-84
2021/12/04 01:40:46;;;;;;;7.63;3.80;;;5.00;99.90;;;;;;5056865;28;20840;-84
2021/12/04 01:43:13;;;;;;;3.63;3.10;;;5.00;99.90;;;;;;5061004;28;20454;-84
2021/12/04 01:45:40;;;;;;;3.33;2.63;;;5.00;99.90;;;;;;5064109;28;20463;-84
2021/12/04 01:48:07;;;;;;;3.90;2.80;;;5.00;99.90;;;;;;5062948;28;20445;-84
2021/12/04 01:50:36;;;;;;;4.37;2.90;;;5.00;99.90;;;;;;5068949;28;20464;-84
2021/12/04 01:53:04;;;;;;;4.00;3.30;;;5.10;99.90;;;;;;5066651;28;20830;-84
2021/12/04 01:55:33;;;;;;;4.47;3.73;;;5.10;99.90;;;;;;5063178;28;20440;-84
2021/12/04 01:58:00;;;;;;;5.50;2.93;;;5.00;99.90;;;;;;5064337;28;20551;-83
2021/12/04 02:00:28;;;;;;;3.57;3.03;;;5.10;99.90;;;;;;5067995;28;20502;-84
2021/12/04 02:02:55;;;;;;;4.43;3.77;;;5.10;99.90;;;;;;5065972;28;20470;-84
2021/12/04 02:05:22;;;;;;;4.03;2.73;;;5.20;99.90;;;;;;5065494;28;20476;-83
2021/12/04 02:07:50;;;;;;;5.90;3.00;;;5.10;99.90;;;;;;5065344;28;20450;-84
2021/12/04 02:10:17;;;;;;;3.83;2.93;;;5.20;99.90;;;;;;5059515;28;20480;-83
2021/12/04 02:12:44;;;;;;;3.70;2.87;;;5.20;99.90;;;;;;5059039;28;20981;-84
2021/12/04 02:15:14;;;;;;;4.83;2.90;;;5.20;99.90;;;;;;5063339;28;20442;-83
2021/12/04 02:17:40;;;;;;;3.87;3.00;;;5.20;99.90;;;;;;5058771;28;20464;-84
2021/12/04 02:20:15;;;;;;;3.87;2.80;;;5.30;99.90;;;;;;5063435;28;21017;-84
2021/12/04 02:22:42;;;;;;;3.73;2.47;;;5.30;99.90;;;;;;5066051;28;20453;-83
2021/12/04 02:25:10;;;;;;;5.27;2.73;;;5.30;99.90;;;;;;5066818;28;20537;-84
2021/12/04 02:27:37;;;;;;;3.40;2.50;;;5.40;99.90;;;;;;5065031;28;20461;-84
2021/12/04 02:30:07;;;;;;;3.70;2.80;;;5.30;99.90;;;;;;5066788;28;20468;-83
2021/12/04 02:32:34;;;;;;;3.50;2.60;;;5.30;99.90;;;;;;5056161;28;20441;-83
2021/12/04 02:35:01;;;;;;;3.80;2.80;;;5.40;99.90;;;;;;5060110;28;20454;-84
2021/12/04 02:37:29;;;;;;;4.77;2.90;;;5.30;99.90;;;;;;5064844;28;20481;-84
2021/12/04 02:39:59;;;;;;;4.37;2.70;;;5.50;99.90;;;;;;5064057;28;20467;-83
2021/12/04 02:42:29;;;;;;;4.13;3.40;;;5.50;99.90;;;;;;5061471;28;20450;-84
2021/12/04 02:44:57;;;;;;;5.17;2.50;;;5.50;99.90;;;;;;5066314;28;20501;-83
2021/12/04 02:47:24;;;;;;;2.80;2.40;;;5.50;99.90;;;;;;5060910;28;20465;-83
2021/12/04 02:49:51;;;;;;;3.30;2.47;;;5.50;99.90;;;;;;5060912;28;20472;-84
2021/12/04 02:52:19;;;;;;;6.57;2.80;;;5.50;99.90;;;;;;5063076;28;20446;-83
2021/12/04 02:54:47;;;;;;;3.90;2.73;;;5.60;99.90;;;;;;5066864;28;20445;-83
2021/12/04 02:57:16;;;;;;;5.13;2.97;;;5.60;99.90;;;;;;5065526;28;20463;-83
2021/12/04 02:59:43;;;;;;;3.30;2.63;;;5.60;99.90;;;;;;5065380;28;20477;-84
2021/12/04 03:02:18;;;;;;;3.57;3.13;;;5.60;99.90;;;;;;5065036;28;20534;-84
2021/12/04 03:04:46;;;;;;;4.00;3.03;;;5.50;99.90;;;;;;5058872;28;20535;-84
2021/12/04 03:07:14;;;;;;;5.60;3.53;;;5.50;99.90;;;;;;5065941;28;20527;-84
2021/12/04 03:09:41;;;;;;;4.17;3.37;;;5.50;99.90;;;;;;5068479;28;20587;-84
2021/12/04 03:12:10;;;;;;;3.20;2.53;;;5.50;99.90;;;;;;5067169;28;20452;-83
2021/12/04 03:14:37;;;;;;;4.63;3.13;;;5.50;99.90;;;;;;5068862;28;20454;-83
2021/12/04 03:17:05;;;;;;;4.20;3.00;;;5.50;99.90;;;;;;5068396;28;20454;-83
2021/12/04 03:19:33;;;;;;;6.13;3.10;;;5.40;99.90;;;;;;5068679;28;21091;-83
2021/12/04 03:22:02;;;;;;;4.97;3.57;;;5.50;99.90;;;;;;5061440;28;20472;-83
2021/12/04 03:24:30;;;;;;;3.57;2.87;;;5.50;99.90;;;;;;5065081;28;20489;-83
2021/12/04 03:26:57;;;;;;;3.40;2.80;;;5.60;99.90;;;;;;5064973;28;20474;-83
2021/12/04 03:29:27;;;;;;;4.50;3.73;;;5.60;99.90;;;;;;5066001;28;20568;-83
2021/12/04 03:32:23;;;;;;;4.20;3.37;;;5.60;99.90;;;;;;5063785;28;20565;-83
2021/12/04 03:40:36;;;;;;;9.10;3.77;;;5.60;99.90;;;;;;5063813;28;20914;-83
2021/12/04 03:43:04;;;;;;;4.27;2.67;;;5.60;99.90;;;;;;5046885;28;20490;-83
2021/12/04 03:45:35;;;;;;;3.43;2.73;;;5.60;99.90;;;;;;5047645;28;20578;-83
2021/12/04 03:48:07;;;;;;;3.73;2.93;;;5.60;99.90;;;;;;5064809;28;20447;-83
2021/12/04 03:50:35;;;;;;;3.40;2.57;;;5.60;99.90;;;;;;5067910;28;20505;-83
2021/12/04 03:53:01;;;;;;;4.10;2.97;;;5.60;99.90;;;;;;5068651;28;20472;-82
2021/12/04 03:55:28;;;;;;;5.60;2.93;;;5.60;99.90;;;;;;5049594;28;20447;-83
2021/12/04 03:57:55;;;;;;;5.10;2.90;;;5.60;99.90;;;;;;5049503;28;20463;-83
2021/12/04 04:00:25;;;;;;;6.53;2.90;;;5.70;99.90;;;;;;5065385;28;20480;-84
2021/12/04 04:02:53;;;;;;;4.50;3.07;;;5.70;99.90;;;;;;5068582;28;20457;-83
2021/12/04 04:05:19;;;;;;;3.07;2.33;;;5.60;99.90;;;;;;5066803;28;20498;-83
2021/12/04 04:07:47;;;;;;;3.57;2.80;;;5.50;99.90;;;;;;5067074;28;20547;-83
2021/12/04 04:10:14;;;;;;;5.13;2.97;;;5.60;99.90;;;;;;5066442;28;20544;-83
2021/12/04 04:12:41;;;;;;;4.37;2.43;;;5.60;99.90;;;;;;5067492;28;20520;-83
2021/12/04 04:15:08;;;;;;;3.70;2.97;;;5.60;99.90;;;;;;5066092;28;20451;-84
2021/12/04 04:17:42;;;;;;;4.47;3.00;;;5.60;99.90;;;;;;5063082;28;20465;-84
2021/12/04 04:20:12;;;;;;;4.57;3.30;;;5.70;99.90;;;;;;5041793;28;20482;-84
2021/12/04 04:22:39;;;;;;;4.67;2.57;;;5.80;99.90;;;;;;5040972;28;20453;-84
2021/12/04 04:25:07;;;;;;;4.77;2.70;;;5.70;99.90;;;;;;5061527;28;20537;-84
2021/12/04 04:27:34;;;;;;;3.77;3.20;;;5.70;99.90;;;;;;5059402;28;20458;-84
2021/12/04 04:30:01;;;;;;;3.73;2.97;;;5.70;99.90;;;;;;5058798;28;20796;-83
2021/12/04 04:32:29;;;;;;;4.13;3.17;;;5.80;99.90;;;;;;5058460;28;21052;-83
2021/12/04 04:35:05;;;;;;;4.17;3.00;;;5.80;99.90;;;;;;5058300;28;20461;-84
2021/12/04 04:37:38;;;;;;;3.07;2.40;;;5.70;99.90;;;;;;5058981;28;20835;-84
2021/12/04 04:59:49;;;;;;;3.57;2.60;;;5.80;99.90;;;;;;5064692;28;20445;-83
2021/12/04 05:10:51;;;;;;;3.30;2.93;;;5.70;99.90;;;;;;5056669;28;20460;-84
2021/12/04 05:13:19;;;;;;;4.00;3.20;;;5.80;99.90;;;;;;5063540;28;20458;-83
2021/12/04 05:15:56;;;;;;;4.10;3.50;;;5.70;99.90;;;;;;5065408;28;20462;-83
2021/12/04 05:18:33;;;;;;;3.60;2.70;;;5.80;99.90;;;;;;5064536;28;20517;-83
2021/12/04 05:21:06;;;;;;;4.47;3.30;;;5.80;99.90;;;;;;5064078;28;20482;-83
2021/12/04 05:23:34;;;;;;;4.90;3.70;;;5.80;99.90;;;;;;5063136;28;20452;-83
2021/12/04 05:26:03;;;;;;;6.00;5.40;;;5.70;99.90;;;;;;5067099;28;21061;-83
2021/12/04 05:28:30;;;;;;;5.40;4.40;;;5.80;99.90;;;;;;5061630;28;20532;-83
2021/12/04 05:30:57;;;;;;;6.53;3.90;;;5.80;99.90;;;;;;5063770;28;20480;-83
2021/12/04 05:33:24;;;;;;;5.07;4.13;;;5.70;99.90;;;;;;5068002;28;20497;-83
2021/12/04 05:35:51;;;;;;;3.93;3.33;;;5.70;99.90;;;;;;5057431;28;20455;-83
2021/12/04 05:38:19;;;;;;;4.13;3.37;;;5.70;99.90;;;;;;5057807;28;20836;-83
2021/12/04 05:40:46;;;;;;;4.33;3.00;;;5.80;99.90;;;;;;5063477;28;20469;-83
2021/12/04 05:43:16;;;;;;;3.70;2.97;;;5.70;99.90;;;;;;5062579;28;20450;-83
2021/12/04 05:45:46;;;;;;;5.13;2.70;;;5.70;99.90;;;;;;5063634;28;20544;-83
2021/12/04 05:48:18;;;;;;;4.57;3.10;;;5.80;99.90;;;;;;5063642;28;20454;-83
2021/12/04 05:51:14;;;;;;;4.33;2.80;;;5.90;99.90;;;;;;5061818;28;20646;-83
2021/12/04 05:53:53;;;;;;;4.50;2.90;;;5.90;99.90;;;;;;5056009;28;20458;-83
2021/12/04 05:56:21;;;;;;;4.53;2.80;;;5.90;99.90;;;;;;5060224;28;20476;-83
2021/12/04 05:58:51;;;;;;;5.80;2.83;;;5.90;99.90;;;;;;5064350;28;20536;-83
2021/12/04 06:01:19;;;;;;;5.80;3.10;;;5.90;99.90;;;;;;5063196;28;20463;-83
2021/12/04 06:04:06;;;;;;;3.47;2.50;;;5.90;99.90;;;;;;5063153;28;20528;-82
2021/12/04 06:06:32;;;;;;;4.43;2.90;;;5.90;99.90;;;;;;5062684;28;20485;-84
2021/12/04 06:08:59;;;;;;;4.00;2.73;;;5.90;99.90;;;;;;5060313;28;20452;-85
2021/12/04 06:11:29;;;;;;;3.87;2.67;;;5.80;99.90;;;;;;5059448;28;20447;-82
2021/12/04 06:13:57;;;;;;;3.60;1.63;;;5.90;99.90;;;;;;5055470;28;20450;-82
2021/12/04 06:16:24;;;;;;;4.00;2.73;;;8.70;99.90;;;;;;5055927;28;20455;-80
2021/12/04 06:18:53;;;;;;;3.00;2.13;;;8.60;99.90;;;;;;5054793;28;20458;-83
2021/12/04 06:24:05;;;;;;;4.40;2.30;;;9.10;99.90;;;;;;5058030;28;20442;-85
2021/12/04 06:26:32;;;;;;;3.80;2.67;;;8.50;99.90;;;;;;5058899;28;20480;-86
2021/12/04 06:29:01;;;;;;;3.40;2.27;;;8.00;99.90;;;;;;5056786;28;20455;-84
2021/12/04 06:31:29;;;;;;;3.67;2.60;;;7.80;99.90;;;;;;5061634;28;20465;-85
2021/12/04 06:33:56;;;;;;;3.70;2.20;;;7.50;99.90;;;;;;5062276;28;20494;-85
2021/12/04 06:36:25;;;;;;;2.93;2.20;;;7.20;99.90;;;;;;5059927;28;20828;-83
2021/12/04 06:38:52;;;;;;;5.83;4.40;;;7.10;99.90;;;;;;5062023;28;20967;-84
2021/12/04 06:41:19;;;;;;;3.73;2.70;;;6.90;99.90;;;;;;5062697;28;20470;-83
2021/12/04 06:43:48;;;;;;;3.90;2.60;;;6.70;99.90;;;;;;5061710;28;20957;-85
2021/12/04 06:46:18;;;;;;;3.53;2.63;;;6.50;99.90;;;;;;5062355;28;20853;-82
2021/12/04 06:48:55;;;;;;;3.13;2.27;;;6.30;99.90;;;;;;5056747;28;20452;-84
2021/12/04 06:51:25;;;;;;;3.90;2.60;;;6.30;99.90;;;;;;5062044;28;20455;-85
2021/12/04 06:53:57;;;;;;;4.47;2.63;;;6.30;99.90;;;;;;5062442;28;20460;-85
2021/12/04 06:56:30;;;;;;;6.57;2.50;;;6.30;99.90;;;;;;5063170;28;20459;-85
2021/12/04 06:58:57;;;;;;;4.73;3.00;;;6.20;99.90;;;;;;5063177;28;20501;-85
2021/12/04 07:01:25;;;;;;;4.77;3.00;;;6.20;99.90;;;;;;5062696;28;20458;-85
2021/12/04 07:03:52;;;;;;;3.93;2.80;;;6.20;99.90;;;;;;5062111;28;20535;-84
2021/12/04 07:06:19;;;;;;;4.53;2.90;;;6.20;99.90;;;;;;5062096;28;20485;-84
2021/12/04 07:08:46;;;;;;;6.80;3.13;;;6.10;99.90;;;;;;5063115;28;20453;-85
2021/12/04 07:11:12;;;;;;;4.70;3.03;;;6.10;99.90;;;;;;5061604;28;20896;-85
2021/12/04 07:13:39;;;;;;;4.90;4.40;;;6.10;99.90;;;;;;5061460;28;20458;-84
2021/12/04 07:16:08;;;;;;;4.60;3.13;;;6.00;99.90;;;;;;5061083;28;20443;-85
2021/12/04 07:18:38;;;;;;;3.40;2.30;;;6.00;99.90;;;;;;5062079;28;20552;-84
2021/12/04 07:21:06;;;;;;;7.93;3.20;;;6.00;99.90;;;;;;5061580;28;20504;-85
2021/12/04 07:23:33;;;;;;;4.50;2.93;;;6.00;99.90;;;;;;5062768;28;20452;-86
2021/12/04 07:26:00;;;;;;;5.17;3.30;;;5.90;99.90;;;;;;5046146;28;20480;-85
2021/12/04 07:28:27;;;;;;;6.03;3.40;;;5.90;99.90;;;;;;5060502;28;20549;-85
2021/12/04 07:30:54;;;;;;;4.43;3.30;;;5.90;99.90;;;;;;5059300;28;20496;-85
2021/12/04 07:33:21;;;;;;;3.57;2.53;;;6.00;99.90;;;;;;5059115;28;20451;-85
2021/12/04 07:35:49;;;;;;;4.10;3.37;;;6.00;99.90;;;;;;5061551;28;20440;-85
2021/12/04 07:38:16;;;;;;;4.03;2.80;;;6.00;99.90;;;;;;5056889;28;20478;-85
2021/12/04 07:40:44;;;;;;;5.50;3.60;;;6.10;99.90;;;;;;5050985;28;20472;-86
2021/12/04 07:43:11;;;;;;;6.27;3.50;;;6.10;99.90;;;;;;5059099;28;20441;-86
2021/12/04 07:45:37;;;;;;;5.50;4.00;;;6.00;99.90;;;;;;5060846;28;20488;-85
2021/12/04 07:48:07;;;;;;;4.60;3.53;;;6.00;99.90;;;;;;5058035;28;20437;-86
2021/12/04 07:50:38;;;;;;;5.27;3.93;;;6.00;99.90;;;;;;5057324;28;20509;-85
2021/12/04 07:53:07;;;;;;;4.70;3.40;;;6.10;99.90;;;;;;5064893;28;20463;-84
2021/12/04 07:55:34;;;;;;;5.20;3.90;;;6.10;99.90;;;;;;5066335;28;20477;-83
2021/12/04 07:58:01;;;;;;;5.30;3.50;;;6.10;99.90;;;;;;5069577;28;20485;-85
2021/12/04 08:00:28;;;;;;;7.17;4.07;;;6.20;99.90;;;;;;5063092;28;20482;-83
2021/12/04 08:02:54;;;;;;;5.33;3.70;;;5.70;99.90;;;;;;5061221;28;20465;-84
2021/12/04 08:05:22;;;;;;;6.63;3.73;;;6.30;99.90;;;;;;5060739;28;20449;-84
2021/12/04 08:07:50;;;;;;;6.03;3.73;;;6.30;99.90;;;;;;5059351;28;20456;-84
2021/12/04 08:10:20;;;;;;;8.00;3.97;;;6.30;99.90;;;;;;5055659;28;20485;-84
2021/12/04 08:12:46;;;;;;;5.53;4.00;;;6.50;99.90;;;;;;5048870;28;20524;-85
2021/12/04 08:15:14;;;;;;;5.60;4.00;;;6.40;99.90;;;;;;5059120;28;20451;-84
2021/12/04 08:17:42;;;;;;;7.23;4.57;;;6.50;99.90;;;;;;5056495;28;20537;-84
2021/12/04 08:20:11;;;;;;;6.43;4.30;;;6.70;99.90;;;;;;5049305;28;20517;-85
2021/12/04 08:22:38;;;;;;;5.10;4.20;;;6.60;99.90;;;;;;5050978;28;20482;-84
2021/12/04 08:25:06;;;;;;;7.70;3.73;;;6.60;99.90;;;;;;5055621;28;20451;-84
2021/12/04 08:27:35;;;;;;;4.47;3.73;;;6.60;99.90;;;;;;5055123;28;20489;-86
2021/12/04 08:30:03;;;;;;;4.77;4.17;;;6.70;99.90;;;;;;5058772;28;20884;-83
2021/12/04 08:32:29;;;;;;;5.50;4.57;;;6.60;99.90;;;;;;5057736;28;20450;-85
2021/12/04 08:34:56;;;;;;;5.00;4.33;;;6.50;99.90;;;;;;5059723;28;20530;-84
2021/12/04 08:37:23;;;;;;;6.40;5.70;;;6.60;99.90;;;;;;5059406;28;20508;-83
2021/12/04 08:39:50;;;;;;;6.70;4.03;;;6.50;99.90;;;;;;5057605;28;20575;-85
2021/12/04 08:42:19;;;;;;;6.43;4.43;;;6.50;99.90;;;;;;5058495;28;20450;-85
2021/12/04 08:44:47;;;;;;;8.23;4.40;;;6.40;99.90;;;;;;5059425;28;20462;-85
2021/12/04 08:47:14;;;;;;;6.20;4.27;;;6.50;99.90;;;;;;5045208;28;20483;-84
2021/12/04 08:49:42;;;;;;;8.00;5.40;;;6.50;99.90;;;;;;5051330;28;20474;-86
2021/12/04 08:52:10;;;;;;;7.20;5.03;;;6.50;99.90;;;;;;5055168;28;20459;-84
2021/12/04 08:54:39;;;;;;;6.30;4.40;;;6.60;99.90;;;;;;5055564;28;20458;-85
2021/12/04 08:57:06;;;;;;;6.10;4.67;;;6.60;99.90;;;;;;5058645;28;20454;-85
2021/12/04 08:59:34;;;;;;;7.43;5.60;;;6.70;99.90;;;;;;5060409;28;20481;-84
2021/12/04 09:02:03;;;;;;;6.57;4.63;;;6.70;99.90;;;;;;5058171;28;20473;-84
2021/12/04 09:04:34;;;;;;;6.80;4.50;;;6.80;99.90;;;;;;5060080;28;20462;-85
2021/12/04 09:07:02;;;;;;;6.93;4.60;;;6.80;99.90;;;;;;5059216;28;20533;-85
2021/12/04 09:09:29;;;;;;;7.57;5.13;;;6.70;99.90;;;;;;5058849;28;20467;-84
2021/12/04 09:11:59;;;;;;;6.17;5.20;;;6.80;99.90;;;;;;5058267;28;20491;-85
2021/12/04 09:14:29;;;;;;;7.70;6.00;;;6.80;99.90;;;;;;5059369;28;20493;-85
2021/12/04 09:16:57;;;;;;;9.30;7.47;;;6.80;99.90;;;;;;5060158;28;20455;-84
2021/12/04 09:19:26;;;;;;;6.70;4.80;;;6.70;99.90;;;;;;5045757;28;20456;-84
2021/12/04 09:21:53;;;;;;;8.23;5.60;;;6.70;99.90;;;;;;5062502;28;20466;-84
2021/12/04 09:24:26;;;;;;;6.30;4.90;;;6.60;99.90;;;;;;5062503;28;20494;-85
2021/12/04 09:26:57;;;;;;;6.13;5.50;;;6.60;99.90;;;;;;5059438;28;20832;-83
2021/12/04 09:29:39;;;;;;;9.87;5.77;;;6.60;99.90;;;;;;5049239;28;20557;-84
2021/12/04 09:32:27;;;;;;;5.80;5.20;;;6.60;99.90;;;;;;5046823;28;20486;-84
2021/12/04 09:59:11;;;;;;;6.90;5.30;;;6.80;99.90;;;;;;5052102;28;20469;-85
2021/12/04 10:02:59;;;;;;;5.40;4.33;;;7.00;99.90;;;;;;5049836;28;20500;-85
2021/12/04 10:14:23;;;;;;;5.53;4.23;;;7.30;99.90;;;;;;5053338;28;20447;-84
2021/12/04 10:17:14;;;;;;;5.43;4.60;;;7.60;99.90;;;;;;5050489;28;20478;-85
2021/12/04 10:22:35;;;;;;;5.73;4.20;;;7.80;99.90;;;;;;5057799;28;20457;-85
2021/12/04 10:33:25;;;;;;;4.13;3.33;;;8.00;99.90;;;;;;5061100;28;20426;-85
2021/12/04 10:35:53;;;;;;;4.93;3.67;;;8.00;99.90;;;;;;5062566;28;20533;-84
2021/12/04 10:38:22;;;;;;;5.03;3.73;;;8.00;99.90;;;;;;5061248;28;20513;-85
2021/12/04 10:40:51;;;;;;;4.63;3.43;;;7.70;99.90;;;;;;5059565;28;20478;-84
2021/12/04 10:43:21;;;;;;;4.03;3.30;;;7.80;99.90;;;;;;5055395;28;20443;-85
2021/12/04 10:45:53;;;;;;;4.40;3.30;;;7.90;99.90;;;;;;5053047;28;20445;-85
2021/12/04 10:48:24;;;;;;;5.27;3.57;;;7.80;99.90;;;;;;5052038;28;20516;-85
2021/12/04 10:50:58;;;;;;;4.70;3.90;;;8.00;99.90;;;;;;5056784;28;20474;-86
2021/12/04 10:53:29;;;;;;;4.87;3.43;;;8.10;99.90;;;;;;5053227;28;20821;-85
2021/12/04 10:56:09;;;;;;;4.93;3.93;;;8.00;99.90;;;;;;5055063;28;20441;-84
2021/12/04 11:01:41;;;;;;;4.60;3.73;;;8.20;99.90;;;;;;5047746;28;20455;-84
2021/12/04 11:04:22;;;;;;;7.60;3.73;;;8.20;99.90;;;;;;5049376;28;20452;-84
2021/12/04 11:07:13;;;;;;;4.87;3.10;;;8.30;99.90;;;;;;5056355;28;20848;-84
2021/12/04 11:23:52;;;;;;;3.23;2.33;;;8.50;99.90;;;;;;5050960;28;20496;-85
2021/12/04 11:26:40;;;;;;;3.73;2.43;;;8.40;99.90;;;;;;5049087;28;20537;-85
2021/12/04 11:38:04;;;;;;;5.50;2.90;;;8.10;99.90;;;;;;5015868;28;20441;-85
2021/12/04 11:40:47;;;;;;;4.23;2.63;;;7.90;99.90;;;;;;5015693;28;20476;-86
2021/12/04 11:43:18;;;;;;;3.40;2.10;;;7.90;99.90;;;;;;5035347;28;20539;-84
2021/12/04 11:46:00;;;;;;;3.77;2.00;;;7.90;99.90;;;;;;5056197;28;20451;-85
2021/12/04 11:48:30;;;;;;;2.70;1.87;;;8.00;99.90;;;;;;5047731;28;21090;-83
2021/12/04 11:50:57;;;;;;;2.97;2.10;;;7.90;99.90;;;;;;5055850;28;20847;-84
2021/12/04 11:53:25;;;;;;;3.70;2.30;;;7.90;99.90;;;;;;5060133;28;20526;-84
2021/12/04 11:55:52;;;;;;;4.20;2.77;;;7.90;99.90;;;;;;5059082;28;20459;-84
2021/12/04 11:58:22;;;;;;;3.37;2.33;;;7.80;99.90;;;;;;5060926;28;20447;-84
2021/12/04 12:00:52;;;;;;;4.10;2.03;;;7.80;99.90;;;;;;5060729;28;20847;-85
2021/12/04 12:03:22;;;;;;;3.27;2.23;;;7.80;99.90;;;;;;5061898;28;20854;-84
2021/12/04 12:05:51;;;;;;;3.50;2.17;;;7.70;99.90;;;;;;5061623;28;20448;-84
2021/12/04 12:08:27;;;;;;;3.13;2.33;;;7.70;99.90;;;;;;5061617;28;20541;-84
2021/12/04 12:11:00;;;;;;;3.90;2.43;;;7.70;99.90;;;;;;5060428;28;20477;-83
2021/12/04 12:13:31;;;;;;;3.83;2.40;;;7.60;99.90;;;;;;5062679;28;20452;-84
2021/12/04 12:16:02;;;;;;;4.20;2.40;;;7.60;99.90;;;;;;5063525;28;20459;-84
2021/12/04 12:18:29;;;;;;;5.20;3.00;;;7.50;99.90;;;;;;5060937;28;20464;-84
2021/12/04 12:21:07;;;;;;;3.10;2.20;;;7.50;99.90;;;;;;5061544;28;20475;-84
2021/12/04 12:23:34;;;;;;;3.60;2.57;;;7.50;99.90;;;;;;5059358;28;20515;-84
2021/12/04 12:26:12;;;;;;;4.53;2.27;;;7.50;99.90;;;;;;5056740;28;20494;-83
2021/12/04 12:37:19;;;;;;;3.50;2.13;;;7.70;99.90;;;;;;5058542;28;20446;-84
2021/12/04 12:39:55;;;;;;;3.40;2.43;;;7.60;99.90;;;;;;5039732;28;20482;-84
2021/12/04 12:42:27;;;;;;;3.50;2.60;;;7.70;99.90;;;;;;5052635;28;20975;-84
2021/12/04 12:44:54;;;;;;;5.13;2.87;;;7.70;99.90;;;;;;5057780;28;20534;-83
2021/12/04 12:47:22;;;;;;;3.50;2.60;;;7.70;99.90;;;;;;5057177;28;20484;-83
2021/12/04 12:49:50;;;;;;;3.77;2.47;;;7.70;99.90;;;;;;5055453;28;20485;-84
2021/12/04 12:52:21;;;;;;;3.40;2.60;;;7.70;99.90;;;;;;5054902;28;20510;-84
2021/12/04 12:54:54;;;;;;;3.47;2.10;;;7.70;99.90;;;;;;5056951;28;20974;-83
2021/12/04 12:57:25;;;;;;;3.27;2.27;;;7.70;99.90;;;;;;5057134;28;20455;-83
2021/12/04 13:13:53;;;;;;;3.33;2.57;;;7.90;99.90;;;;;;5050871;28;21710;-83
2021/12/04 13:16:23;;;;;;;3.20;2.17;;;8.00;99.90;;;;;;5052398;28;20456;-83
2021/12/04 13:18:56;;;;;;;3.17;1.97;;;8.10;99.90;;;;;;5051882;28;20479;-83
2021/12/04 13:21:24;;;;;;;2.80;2.00;;;8.30;99.90;;;;;;5051581;28;20492;-83
2021/12/04 13:23:53;;;;;;;5.67;2.63;;;8.50;99.90;;;;;;5053015;28;20836;-85
2021/12/04 13:26:25;;;;;;;4.30;2.80;;;8.60;99.90;;;;;;5057741;28;20948;-84
2021/12/04 13:28:53;;;;;;;2.63;1.97;;;8.30;99.90;;;;;;5055249;28;20463;-84
2021/12/04 13:31:21;;;;;;;3.40;2.20;;;8.20;99.90;;;;;;5054006;28;21065;-85
2021/12/04 13:33:51;;;;;;;3.53;2.73;;;8.10;99.90;;;;;;5056296;28;20515;-84
2021/12/04 13:36:21;;;;;;;3.77;2.20;;;7.90;99.90;;;;;;5057050;28;20443;-84
2021/12/04 13:38:51;;;;;;;3.90;2.20;;;7.70;99.90;;;;;;5059000;28;20441;-84
2021/12/04 13:41:18;;;;;;;3.80;2.60;;;7.70;99.90;;;;;;5061516;28;20467;-84
2021/12/04 13:43:52;;;;;;;3.50;2.20;;;7.70;99.90;;;;;;5061614;28;20448;-84
2021/12/04 13:46:19;;;;;;;3.17;2.37;;;7.60;99.90;;;;;;5061764;28;20475;-85
2021/12/04 13:48:46;;;;;;;3.30;2.57;;;7.30;99.90;;;;;;5060839;28;20992;-85
2021/12/04 13:51:13;;;;;;;3.20;2.30;;;7.20;99.90;;;;;;5060898;28;20993;-85
2021/12/04 13:53:44;;;;;;;3.53;2.30;;;7.20;99.90;;;;;;5062976;28;20450;-84
2021/12/04 13:56:14;;;;;;;3.60;2.93;;;7.10;99.90;;;;;;5063241;28;20524;-85
2021/12/04 13:58:46;;;;;;;4.20;2.77;;;7.10;99.90;;;;;;5061537;28;20457;-84
2021/12/04 14:01:13;;;;;;;2.80;2.30;;;7.00;99.90;;;;;;5060191;28;20772;-83
2021/12/04 14:03:40;;;;;;;11.63;10.70;;;6.90;99.90;;;;;;5061143;28;20561;-84
2021/12/04 14:06:11;;;;;;;5.47;3.53;;;6.80;99.90;;;;;;5061009;28;20454;-87
2021/12/04 14:08:38;;;;;;;5.93;3.13;;;6.80;99.90;;;;;;5046838;28;20865;-83
2021/12/04 14:11:07;;;;;;;5.40;2.90;;;6.70;99.90;;;;;;5038849;28;20471;-82
2021/12/04 14:13:34;;;;;;;6.13;2.97;;;6.70;99.90;;;;;;5052436;28;20450;-83
2021/12/04 14:16:01;;;;;;;4.47;3.07;;;6.80;99.90;;;;;;5061721;28;20450;-82
2021/12/04 14:18:29;;;;;;;6.37;3.80;;;6.80;99.90;;;;;;5059936;28;20460;-82
2021/12/04 14:21:01;;;;;;;4.83;3.07;;;6.80;99.90;;;;;;5057345;28;21058;-84
2021/12/04 14:23:28;;;;;;;4.13;2.80;;;6.70;99.90;;;;;;5061830;28;20455;-83
2021/12/04 14:25:55;;;;;;;6.47;3.27;;;6.70;99.90;;;;;;5059522;28;20835;-83
2021/12/04 14:28:31;;;;;;;4.43;3.63;;;6.70;99.90;;;;;;5060188;28;20501;-83
2021/12/04 14:30:57;;;;;;;5.57;3.40;;;6.60;99.90;;;;;;5070450;28;20481;-83
2021/12/04 14:33:26;;;;;;;4.33;2.90;;;6.60;99.90;;;;;;5060349;28;20451;-83
2021/12/04 14:35:55;;;;;;;4.10;3.57;;;6.60;99.90;;;;;;5060561;28;20886;-82
2021/12/04 14:38:25;;;;;;;3.60;3.10;;;6.60;99.90;;;;;;5059958;28;20522;-83
2021/12/04 14:40:55;;;;;;;9.33;3.90;;;6.60;99.90;;;;;;5060243;28;20544;-83
2021/12/04 14:43:26;;;;;;;5.47;4.03;;;6.60;99.90;;;;;;5061297;28;20447;-83
2021/12/04 14:45:56;;;;;;;4.93;3.60;;;6.60;99.90;;;;;;5061849;28;20447;-84
2021/12/04 14:48:26;;;;;;;11.97;5.10;;;6.60;99.90;;;;;;5058407;28;20494;-84
2021/12/04 14:50:58;;;;;;;9.80;4.87;;;6.60;99.90;;;;;;5059724;28;20478;-84
2021/12/04 14:53:25;;;;;;;6.10;4.50;;;6.50;99.90;;;;;;5079147;28;20458;-82
2021/12/04 14:55:53;;;;;;;4.70;4.30;;;6.50;99.90;;;;;;5080826;28;20936;-83
2021/12/04 14:58:23;;;;;;;6.73;4.93;;;6.40;99.90;;;;;;5080795;28;20537;-82
2021/12/04 15:00:56;;;;;;;6.27;4.60;;;6.40;99.90;;;;;;5063088;28;20468;-84
2021/12/04 15:03:31;;;;;;;6.20;5.27;;;6.40;99.90;;;;;;5060040;28;20464;-84
2021/12/04 15:06:01;;;;;;;7.27;5.50;;;6.40;99.90;;;;;;5060453;28;20958;-83
2021/12/04 15:08:30;;;;;;;9.00;6.40;;;6.50;99.90;;;;;;5059925;28;20765;-84
2021/12/04 15:11:00;;;;;;;9.63;7.13;;;6.50;99.90;;;;;;5058500;28;20467;-84
2021/12/04 15:13:30;;;;;;;7.20;6.10;;;6.50;99.90;;;;;;5060084;28;20451;-84
2021/12/04 15:16:03;;;;;;;11.80;7.27;;;6.30;99.90;;;;;;5066372;28;20506;-84
2021/12/04 15:18:34;;;;;;;17.20;7.83;;;6.30;99.90;;;;;;5055503;28;20457;-83
2021/12/04 15:21:04;;;;;;;9.33;6.87;;;6.30;99.90;;;;;;5054350;28;20852;-83
2021/12/04 15:23:31;;;;;;;8.33;6.83;;;6.30;99.90;;;;;;5049184;28;20471;-83
2021/12/04 15:26:02;;;;;;;9.73;7.33;;;6.20;99.90;;;;;;5054164;28;20992;-86
2021/12/04 15:28:31;;;;;;;9.33;6.70;;;6.20;99.90;;;;;;5054214;28;20943;-83
2021/12/04 15:31:02;;;;;;;9.70;7.60;;;6.20;99.90;;;;;;5055300;28;20476;-80